createdAt,value
2019-01-19T00:00:46.492Z,9.25
2019-01-19T00:03:42.689Z,11.57
2019-01-19T00:06:38.120Z,13.00
2019-01-19T00:09:22.360Z,14.13
2019-01-19T00:12:32.864Z,10.15
2019-01-19T00:15:13.615Z,10.50
2019-01-19T00:18:21.357Z,16.00
2019-01-19T00:21:37.713Z,13.22
2019-01-19T00:24:27.999Z,12.65
2019-01-19T00:27:26.745Z,7.97
2019-01-19T00:30:22.380Z,8.23
2019-01-19T00:33:41.984Z,8.28
2019-01-19T00:36:26.217Z,12.00
2019-01-19T00:39:37.616Z,12.40
2019-01-19T00:42:38.555Z,10.25
2019-01-19T00:45:50.300Z,8.90
2019-01-19T00:48:34.360Z,9.70
2019-01-19T00:51:40.046Z,8.03
2019-01-19T00:54:24.790Z,6.22
2019-01-19T00:57:21.146Z,8.45
2019-01-19T00:59:58.702Z,10.05
2019-01-19T01:03:00.719Z,9.28
2019-01-19T01:05:57.107Z,9.98
2019-01-19T01:08:51.980Z,11.83
2019-01-19T01:12:02.391Z,6.17
2019-01-19T01:15:06.836Z,8.60
2019-01-19T01:18:05.452Z,6.33
2019-01-19T01:20:50.412Z,9.50
2019-01-19T01:23:50.199Z,10.28
2019-01-19T01:27:21.929Z,8.75
2019-01-19T01:30:44.287Z,11.03
2019-01-19T01:33:48.993Z,5.55
2019-01-19T01:36:30.397Z,7.58
2019-01-19T01:39:18.632Z,8.70
2019-01-19T01:42:29.042Z,15.80
2019-01-19T01:45:19.700Z,8.85
2019-01-19T01:48:24.622Z,9.18
2019-01-19T01:51:30.105Z,6.72
2019-01-19T01:54:45.742Z,5.95
2019-01-19T01:57:21.084Z,6.47
2019-01-19T02:00:21.677Z,8.35
2019-01-19T02:03:20.255Z,6.20
2019-01-19T02:06:23.196Z,7.45
2019-01-19T02:09:17.228Z,8.73
2019-01-19T02:12:33.775Z,11.05
2019-01-19T02:15:59.096Z,12.35
2019-01-19T02:18:57.873Z,9.40
2019-01-19T02:22:01.567Z,14.13
2019-01-19T02:25:32.783Z,7.75
2019-01-19T02:28:36.364Z,9.63
2019-01-19T02:31:49.771Z,5.12
2019-01-19T02:35:06.488Z,8.53
2019-01-19T02:37:59.990Z,10.35
2019-01-19T02:41:08.906Z,10.53
2019-01-19T02:43:48.904Z,7.95
2019-01-19T02:47:07.050Z,7.62
2019-01-19T02:50:26.758Z,8.85
2019-01-19T02:53:25.569Z,5.75
2019-01-19T02:56:20.383Z,10.98
2019-01-19T02:59:12.003Z,7.80
2019-01-19T03:02:15.980Z,6.83
2019-01-19T03:05:06.537Z,8.08
2019-01-19T03:08:05.314Z,9.73
2019-01-19T03:11:12.023Z,6.87
2019-01-19T03:14:08.896Z,10.70
2019-01-19T03:17:03.526Z,5.25
2019-01-19T03:20:16.506Z,13.28
2019-01-19T03:23:28.356Z,7.60
2019-01-19T03:26:25.407Z,5.08
2019-01-19T03:29:29.155Z,8.35
2019-01-19T03:32:38.164Z,7.33
2019-01-19T03:35:32.152Z,7.05
2019-01-19T03:38:58.259Z,7.00
2019-01-19T03:42:02.240Z,7.70
2019-01-19T03:44:53.653Z,8.68
2019-01-19T03:47:52.528Z,8.38
2019-01-19T03:50:32.905Z,6.65
2019-01-19T03:53:25.660Z,10.80
2019-01-19T03:56:30.431Z,7.47
2019-01-19T03:59:37.625Z,7.87
2019-01-19T04:02:36.951Z,9.05
2019-01-19T04:05:45.369Z,4.60
2019-01-19T04:09:03.555Z,4.83
2019-01-19T04:12:17.017Z,7.47
2019-01-19T04:15:30.239Z,9.05
2019-01-19T04:18:27.498Z,7.97
2019-01-19T04:21:22.940Z,7.67
2019-01-19T04:23:57.078Z,7.78
2019-01-19T04:26:39.327Z,7.15
2019-01-19T04:29:09.085Z,6.05
2019-01-19T04:31:38.600Z,6.08
2019-01-19T04:34:08.545Z,8.43
2019-01-19T04:36:38.351Z,10.18
2019-01-19T04:39:12.044Z,5.65
2019-01-19T04:41:42.303Z,9.70
2019-01-19T04:44:11.787Z,8.30
2019-01-19T04:46:41.446Z,7.17
2019-01-19T04:49:11.423Z,8.18
2019-01-19T04:51:41.001Z,9.45
2019-01-19T04:54:10.583Z,9.15
2019-01-19T04:56:40.249Z,6.47
2019-01-19T04:59:09.770Z,7.90
2019-01-19T05:01:39.415Z,9.05
2019-01-19T05:04:08.895Z,6.92
2019-01-19T05:06:38.509Z,10.65
2019-01-19T05:09:09.160Z,7.22
2019-01-19T05:11:38.661Z,9.85
2019-01-19T05:14:08.265Z,9.45
2019-01-19T05:16:38.015Z,10.58
2019-01-19T05:19:07.558Z,8.60
2019-01-19T05:21:37.143Z,6.03
2019-01-19T05:24:06.953Z,13.68
2019-01-19T05:26:36.589Z,7.50
2019-01-19T05:29:06.308Z,5.33
2019-01-19T05:31:35.880Z,8.98
2019-01-19T05:34:05.462Z,11.85
2019-01-19T05:36:38.469Z,11.65
2019-01-19T05:39:08.574Z,5.53
2019-01-19T05:41:38.186Z,7.28
2019-01-19T05:44:07.867Z,6.92
2019-01-19T05:46:37.803Z,10.55
2019-01-19T05:49:07.366Z,8.15
2019-01-19T05:51:36.925Z,10.43
2019-01-19T05:54:06.720Z,8.38
2019-01-19T05:56:36.537Z,8.53
2019-01-19T05:59:06.235Z,8.85
2019-01-19T06:01:35.883Z,8.13
2019-01-19T06:04:05.652Z,8.03
2019-01-19T06:06:35.336Z,8.13
2019-01-19T06:09:07.898Z,9.98
2019-01-19T06:11:37.452Z,10.88
2019-01-19T06:14:07.306Z,12.55
2019-01-19T06:16:37.104Z,8.60
2019-01-19T06:19:06.983Z,9.93
2019-01-19T06:21:41.996Z,7.55
2019-01-19T06:24:11.791Z,10.03
2019-01-19T06:26:41.407Z,5.72
2019-01-19T06:29:11.407Z,8.95
2019-01-19T06:31:41.021Z,14.55
2019-01-19T06:34:10.705Z,9.03
2019-01-19T06:36:40.597Z,5.62
2019-01-19T06:39:11.762Z,10.50
2019-01-19T06:41:41.670Z,9.33
2019-01-19T06:44:11.333Z,6.75
2019-01-19T06:46:40.912Z,6.80
2019-01-19T06:49:11.037Z,6.70
2019-01-19T06:51:40.752Z,10.20
2019-01-19T06:54:10.928Z,9.63
2019-01-19T06:56:41.122Z,5.08
2019-01-19T06:59:17.314Z,9.70
2019-01-19T07:01:42.290Z,10.80
2019-01-19T07:04:11.836Z,11.05
2019-01-19T07:06:41.498Z,12.40
2019-01-19T07:09:11.302Z,12.45
2019-01-19T07:11:41.270Z,7.97
2019-01-19T07:14:11.049Z,8.00
2019-01-19T07:16:40.726Z,9.70
2019-01-19T07:19:10.369Z,6.45
2019-01-19T07:21:40.125Z,8.00
2019-01-19T07:24:09.759Z,10.50
2019-01-19T07:26:39.488Z,9.97
2019-01-19T07:29:09.395Z,8.90
2019-01-19T07:31:38.935Z,6.17
2019-01-19T07:34:08.528Z,5.90
2019-01-19T07:36:38.197Z,5.63
2019-01-19T07:39:08.978Z,9.20
2019-01-19T07:41:38.528Z,10.37
2019-01-19T07:44:08.369Z,6.12
2019-01-19T07:46:38.823Z,3.93
2019-01-19T07:49:08.506Z,8.60
2019-01-19T07:51:38.515Z,8.75
2019-01-19T07:54:08.558Z,11.17
2019-01-19T07:56:38.541Z,9.27
2019-01-19T07:59:08.152Z,7.50
2019-01-19T08:01:37.628Z,9.30
2019-01-19T08:04:07.350Z,9.50
2019-01-19T08:06:37.342Z,6.97
2019-01-19T08:09:08.955Z,10.37
2019-01-19T08:11:39.265Z,6.17
2019-01-19T08:14:08.956Z,11.33
2019-01-19T08:16:38.652Z,7.53
2019-01-19T08:19:08.512Z,11.87
2019-01-19T08:21:38.325Z,7.85
2019-01-19T08:24:08.042Z,12.43
2019-01-19T08:26:38.261Z,12.90
2019-01-19T08:29:08.250Z,11.67
2019-01-19T08:31:37.841Z,8.70
2019-01-19T08:34:07.842Z,11.47
2019-01-19T08:36:37.614Z,7.83
2019-01-19T08:39:09.362Z,8.77
2019-01-19T08:41:39.148Z,12.87
2019-01-19T08:44:08.912Z,9.33
2019-01-19T08:46:38.714Z,10.82
2019-01-19T08:49:08.346Z,10.13
2019-01-19T08:51:37.861Z,9.20
2019-01-19T08:54:07.688Z,12.10
2019-01-19T08:56:38.207Z,7.90
2019-01-19T08:59:07.949Z,8.50
2019-01-19T09:01:37.552Z,8.70
2019-01-19T09:04:07.176Z,7.23
2019-01-19T09:06:37.061Z,5.63
2019-01-19T09:09:08.560Z,7.13
2019-01-19T09:11:38.351Z,10.43
2019-01-19T09:14:07.958Z,11.03
2019-01-19T09:16:39.906Z,12.10
2019-01-19T09:19:09.149Z,10.63
2019-01-19T09:21:38.849Z,8.83
2019-01-19T09:24:33.581Z,11.73
2019-01-19T09:27:03.220Z,12.37
2019-01-19T09:29:32.850Z,6.83
2019-01-19T09:32:02.986Z,7.17
2019-01-19T09:34:34.087Z,7.20
2019-01-19T09:37:04.110Z,6.90
2019-01-19T09:39:33.780Z,10.53
2019-01-19T09:42:03.441Z,6.93
2019-01-19T09:44:33.364Z,9.60
2019-01-19T09:47:03.001Z,12.13
2019-01-19T09:49:32.824Z,7.17
2019-01-19T09:52:02.461Z,7.83
2019-01-19T09:54:32.181Z,8.00
2019-01-19T09:57:01.858Z,5.63
2019-01-19T09:59:31.580Z,7.03
2019-01-19T10:02:01.475Z,11.97
2019-01-19T10:04:31.676Z,7.70
2019-01-19T10:07:01.378Z,4.73
2019-01-19T10:09:31.015Z,9.53
2019-01-19T10:12:00.703Z,7.87
2019-01-19T10:14:30.310Z,6.63
2019-01-19T10:17:00.066Z,6.13
2019-01-19T10:19:29.662Z,6.40
2019-01-19T10:21:59.173Z,10.70
2019-01-19T10:24:28.825Z,6.90
2019-01-19T10:26:58.367Z,8.93
2019-01-19T10:29:28.192Z,6.10
2019-01-19T10:31:58.041Z,4.77
2019-01-19T10:34:27.629Z,6.20
2019-01-19T10:36:57.299Z,5.87
2019-01-19T10:39:27.001Z,6.73
2019-01-19T10:41:56.536Z,7.87
2019-01-19T10:44:26.233Z,7.23
2019-01-19T10:46:55.906Z,5.57
2019-01-19T10:49:25.347Z,6.77
2019-01-19T10:51:59.338Z,6.07
2019-01-19T10:54:26.306Z,5.63
2019-01-19T10:56:55.878Z,11.03
2019-01-19T10:59:25.429Z,6.03
2019-01-19T11:01:55.223Z,8.43
2019-01-19T11:04:24.852Z,6.80
2019-01-19T11:06:54.452Z,7.70
2019-01-19T11:09:24.030Z,9.80
2019-01-19T11:11:53.584Z,9.60
2019-01-19T11:14:23.161Z,4.83
2019-01-19T11:16:52.969Z,5.17
2019-01-19T11:19:22.473Z,4.63
2019-01-19T11:21:52.070Z,6.10
2019-01-19T11:24:22.113Z,10.67
2019-01-19T11:26:51.667Z,12.83
2019-01-19T11:29:21.220Z,7.70
2019-01-19T11:31:50.968Z,6.33
2019-01-19T11:34:20.922Z,7.27
2019-01-19T11:36:50.547Z,6.37
2019-01-19T11:39:20.262Z,5.67
2019-01-19T11:41:49.794Z,5.90
2019-01-19T11:44:19.360Z,9.73
2019-01-19T11:46:49.319Z,6.13
2019-01-19T11:49:19.426Z,5.17
2019-01-19T11:51:48.879Z,7.17
2019-01-19T11:54:18.906Z,7.23
2019-01-19T11:56:48.525Z,10.83
2019-01-19T11:59:18.105Z,6.67
2019-01-19T12:01:47.914Z,7.53
2019-01-19T12:04:17.616Z,7.57
2019-01-19T12:06:47.325Z,7.97
2019-01-19T12:09:17.045Z,7.13
2019-01-19T12:11:46.585Z,9.33
2019-01-19T12:14:16.463Z,8.77
2019-01-19T12:16:46.236Z,8.53
2019-01-19T12:19:16.119Z,10.77
2019-01-19T12:21:46.093Z,9.80
2019-01-19T12:24:16.165Z,14.17
2019-01-19T12:26:45.884Z,11.37
2019-01-19T12:29:15.462Z,9.17
2019-01-19T12:31:45.596Z,5.90
2019-01-19T12:34:15.378Z,7.40
2019-01-19T12:36:45.353Z,8.13
2019-01-19T12:39:16.279Z,7.80
2019-01-19T12:41:46.163Z,6.77
2019-01-19T12:44:15.900Z,9.23
2019-01-19T12:46:45.825Z,6.47
2019-01-19T12:49:15.395Z,6.87
2019-01-19T12:51:45.298Z,9.20
2019-01-19T12:54:15.305Z,7.53
2019-01-19T12:56:45.292Z,9.43
2019-01-19T12:59:14.967Z,9.93
2019-01-19T13:01:44.892Z,11.53
2019-01-19T13:04:14.883Z,7.97
2019-01-19T13:07:00.705Z,9.10
2019-01-19T13:09:51.879Z,11.60
2019-01-19T13:12:48.866Z,9.63
2019-01-19T13:15:50.804Z,10.47
2019-01-19T13:18:52.742Z,9.73
2019-01-19T13:21:57.504Z,11.70
2019-01-19T13:24:44.985Z,8.10
2019-01-19T13:27:50.994Z,7.77
2019-01-19T13:30:55.771Z,10.13
2019-01-19T13:33:39.159Z,11.90
2019-01-19T13:36:52.444Z,12.37
2019-01-19T13:39:51.420Z,19.93
2019-01-19T13:42:55.449Z,7.73
2019-01-19T13:46:15.267Z,10.60
2019-01-19T13:49:06.765Z,12.70
2019-01-19T13:52:03.610Z,10.13
2019-01-19T13:55:20.157Z,6.60
2019-01-19T13:58:31.031Z,9.13
2019-01-19T14:01:39.846Z,8.73
2019-01-19T14:04:47.385Z,9.10
2019-01-19T14:07:50.673Z,11.80
2019-01-19T14:10:44.369Z,13.30
2019-01-19T14:13:41.182Z,11.10
2019-01-19T14:17:00.807Z,10.73
2019-01-19T14:20:08.921Z,11.07
2019-01-19T14:23:37.501Z,11.87
2019-01-19T14:26:42.225Z,15.80
2019-01-19T14:29:45.294Z,9.00
2019-01-19T14:32:49.622Z,9.13
2019-01-19T14:35:35.079Z,12.30
2019-01-19T14:38:36.516Z,9.80
2019-01-19T14:41:56.899Z,9.00
2019-01-19T14:45:15.432Z,15.20
2019-01-19T14:48:23.098Z,12.33
2019-01-19T14:51:35.842Z,9.70
2019-01-19T14:54:47.555Z,10.10
2019-01-19T14:57:52.135Z,13.23
2019-01-19T15:00:59.612Z,8.40
2019-01-19T15:03:41.653Z,11.70
2019-01-19T15:07:16.200Z,15.70
2019-01-19T15:10:16.401Z,13.40
2019-01-19T15:13:07.841Z,11.70
2019-01-19T15:15:58.265Z,10.67
2019-01-19T15:18:52.605Z,12.67
2019-01-19T15:22:14.386Z,21.80
2019-01-19T15:25:07.986Z,16.67
2019-01-19T15:28:15.058Z,17.53
2019-01-19T15:31:19.874Z,7.67
2019-01-19T15:34:25.398Z,9.97
2019-01-19T15:37:19.410Z,9.83
2019-01-19T15:40:48.149Z,8.97
2019-01-19T15:44:10.335Z,9.10
2019-01-19T15:47:06.429Z,13.83
2019-01-19T15:50:23.163Z,7.60
2019-01-19T15:53:30.665Z,12.10
2019-01-19T15:56:25.365Z,8.50
2019-01-19T15:59:24.646Z,8.17
2019-01-19T16:02:34.775Z,11.17
2019-01-19T16:05:32.509Z,10.97
2019-01-19T16:08:50.639Z,15.90
2019-01-19T16:11:48.913Z,15.13
2019-01-19T16:15:01.476Z,15.37
2019-01-19T16:18:00.911Z,15.33
2019-01-19T16:20:55.688Z,16.70
2019-01-19T16:24:11.396Z,12.33
2019-01-19T16:27:42.805Z,8.97
2019-01-19T16:30:32.468Z,8.00
2019-01-19T16:34:09.802Z,7.47
2019-01-19T16:37:11.982Z,6.43
2019-01-19T16:40:03.709Z,9.73
2019-01-19T16:43:12.734Z,10.43
2019-01-19T16:46:26.084Z,12.17
2019-01-19T16:49:41.199Z,8.20
2019-01-19T16:52:55.788Z,8.00
2019-01-19T16:56:00.358Z,10.53
2019-01-19T16:59:10.073Z,10.07
2019-01-19T17:02:20.603Z,14.07
2019-01-19T17:05:46.608Z,14.23
2019-01-19T17:08:45.050Z,11.23
2019-01-19T17:11:59.575Z,10.87
2019-01-19T17:14:58.454Z,9.23
2019-01-19T17:18:10.393Z,9.07
2019-01-19T17:21:27.340Z,7.67
2019-01-19T17:24:21.917Z,13.80
2019-01-19T17:27:31.434Z,12.70
2019-01-19T17:30:53.690Z,14.50
2019-01-19T17:33:47.477Z,11.90
2019-01-19T17:36:44.519Z,12.40
2019-01-19T17:39:57.123Z,22.13
2019-01-19T17:43:07.695Z,15.33
2019-01-19T17:46:23.292Z,16.83
2019-01-19T17:49:29.632Z,20.23
2019-01-19T17:52:36.235Z,19.83
2019-01-19T17:55:51.639Z,17.37
2019-01-19T17:58:48.706Z,18.13
2019-01-19T18:01:45.805Z,13.13
2019-01-19T18:04:42.019Z,16.23
2019-01-19T18:07:31.778Z,11.67
2019-01-19T18:10:40.807Z,16.10
2019-01-19T18:14:19.751Z,16.57
2019-01-19T18:17:24.448Z,16.07
2019-01-19T18:20:18.418Z,22.37
2019-01-19T18:23:26.754Z,17.87
2019-01-19T18:26:07.215Z,14.33
2019-01-19T18:29:25.305Z,15.90
2019-01-19T18:32:04.492Z,21.87
2019-01-19T18:35:19.080Z,11.10
2019-01-19T18:38:17.661Z,22.13
2019-01-19T18:41:18.654Z,17.13
2019-01-19T18:44:21.259Z,19.83
2019-01-19T18:47:33.656Z,21.77
2019-01-19T18:50:47.346Z,20.13
2019-01-19T18:54:02.274Z,14.03
2019-01-19T18:57:03.923Z,14.93
2019-01-19T19:00:17.623Z,15.37
2019-01-19T19:03:35.641Z,18.20
2019-01-19T19:06:46.919Z,25.13
2019-01-19T19:09:49.087Z,21.53
2019-01-19T19:12:43.588Z,13.70
2019-01-19T19:15:46.739Z,15.40
2019-01-19T19:19:03.385Z,15.37
2019-01-19T19:22:14.446Z,18.50
2019-01-19T19:25:13.117Z,20.97
2019-01-19T19:28:19.425Z,13.47
2019-01-19T19:31:19.702Z,20.77
2019-01-19T19:33:57.390Z,18.70
2019-01-19T19:37:00.904Z,16.93
2019-01-19T19:39:55.631Z,18.57
2019-01-19T19:42:40.636Z,14.63
2019-01-19T19:46:03.793Z,14.93
2019-01-19T19:49:11.583Z,19.50
2019-01-19T19:52:06.813Z,20.30
2019-01-19T19:54:37.257Z,21.50
2019-01-19T19:57:07.388Z,21.10
2019-01-19T19:59:37.027Z,17.97
2019-01-19T20:02:07.006Z,22.80
2019-01-19T20:04:36.816Z,17.77
2019-01-19T20:07:07.041Z,17.87
2019-01-19T20:09:37.253Z,20.17
2019-01-19T20:12:10.541Z,16.70
2019-01-19T20:14:40.543Z,21.47
2019-01-19T20:17:10.681Z,18.23
2019-01-19T20:19:40.377Z,22.27
2019-01-19T20:22:10.958Z,15.33
2019-01-19T20:24:40.635Z,18.17
2019-01-19T20:27:10.399Z,19.30
2019-01-19T20:29:40.483Z,23.93
2019-01-19T20:32:10.475Z,21.83
2019-01-19T20:34:40.556Z,21.60
2019-01-19T20:37:11.575Z,16.67
2019-01-19T20:39:41.327Z,18.20
2019-01-19T20:42:11.074Z,16.63
2019-01-19T20:44:41.131Z,24.40
2019-01-19T20:47:10.826Z,18.00
2019-01-19T20:49:40.383Z,23.23
2019-01-19T20:52:10.311Z,20.47
2019-01-19T20:54:41.197Z,18.97
2019-01-19T20:57:11.790Z,18.07
2019-01-19T20:59:41.737Z,20.50
2019-01-19T21:02:11.706Z,19.80
2019-01-19T21:04:41.472Z,22.57
2019-01-19T21:07:12.783Z,19.07
2019-01-19T21:09:42.885Z,20.87
2019-01-19T21:12:12.698Z,21.00
2019-01-19T21:14:42.822Z,21.90
2019-01-19T21:17:13.008Z,18.50
2019-01-19T21:19:43.122Z,16.83
2019-01-19T21:22:13.039Z,20.13
2019-01-19T21:24:42.998Z,19.43
2019-01-19T21:27:13.250Z,19.53
2019-01-19T21:29:43.107Z,19.70
2019-01-19T21:32:13.402Z,14.73
2019-01-19T21:34:43.106Z,26.63
2019-01-19T21:37:13.118Z,16.77
2019-01-19T21:39:42.988Z,22.97
2019-01-19T21:42:13.033Z,14.27
2019-01-19T21:44:43.139Z,22.13
2019-01-19T21:47:13.685Z,18.90
2019-01-19T21:49:43.408Z,17.57
2019-01-19T21:52:13.181Z,18.13
2019-01-19T21:54:43.290Z,13.20
2019-01-19T21:57:12.993Z,19.70
2019-01-19T21:59:43.161Z,11.67
2019-01-19T22:02:13.327Z,20.27
2019-01-19T22:04:43.114Z,25.37
2019-01-19T22:07:13.137Z,15.40
2019-01-19T22:09:43.434Z,17.07
2019-01-19T22:12:13.102Z,23.33
2019-01-19T22:14:43.035Z,19.67
2019-01-19T22:17:13.097Z,15.97
2019-01-19T22:19:43.013Z,13.37
2019-01-19T22:22:13.076Z,15.97
2019-01-19T22:24:43.076Z,25.13
2019-01-19T22:27:14.779Z,14.00
2019-01-19T22:29:44.715Z,17.07
2019-01-19T22:32:14.500Z,23.33
2019-01-19T22:34:44.433Z,20.40
2019-01-19T22:37:14.485Z,15.17
2019-01-19T22:39:44.176Z,16.77
2019-01-19T22:42:13.878Z,17.70
2019-01-19T22:44:43.703Z,19.57
2019-01-19T22:47:13.615Z,17.13
2019-01-19T22:49:43.416Z,19.93
2019-01-19T22:52:13.275Z,18.40
2019-01-19T22:54:43.001Z,18.93
2019-01-19T22:57:12.655Z,16.70
2019-01-19T22:59:42.496Z,18.07
2019-01-19T23:02:13.803Z,16.87
2019-01-19T23:04:44.151Z,19.37
2019-01-19T23:07:13.972Z,19.43
2019-01-19T23:09:43.561Z,13.30
2019-01-19T23:12:13.520Z,16.93
2019-01-19T23:14:43.320Z,26.07
2019-01-19T23:17:13.040Z,23.57
2019-01-19T23:19:42.881Z,13.03
2019-01-19T23:22:12.893Z,17.30
2019-01-19T23:24:42.713Z,22.50
2019-01-19T23:27:12.696Z,17.70
2019-01-19T23:29:42.331Z,19.63
2019-01-19T23:32:11.887Z,21.93
2019-01-19T23:34:41.771Z,24.03
2019-01-19T23:37:11.290Z,24.47
2019-01-19T23:39:40.873Z,28.73
2019-01-19T23:42:10.694Z,19.87
2019-01-19T23:44:40.328Z,23.63
2019-01-19T23:47:09.950Z,25.43
2019-01-19T23:49:39.657Z,19.63
2019-01-19T23:52:09.480Z,23.87
2019-01-19T23:54:39.263Z,18.00
2019-01-19T23:57:09.010Z,21.77
2019-01-19T23:59:38.663Z,26.60
